Magnolia, NJ (08049)

1:59 PM EST on December 03, 2016 (GMT -0500)
Magnolia Borough | | Change Station

Elev 92 ft 39.85 °N, 75.03 °W | Updated 2 minutes ago

Mostly Cloudy
Mostly Cloudy
51.1 °F
Feels Like 51.1 °F
N
7.2
Wind Variable Wind from WNW
Gusts 12.3 mph

Today
High -- | Low -- °F
--% Chance of Precip.
Yesterday
High -- | Low -- °F
Precip. -- in
Pressure 30.08 in
Visibility 10.0 miles
Clouds Mostly Cloudy 6000 ft
Mostly Cloudy 25000 ft
Dew Point 27 °F
Humidity 39%
Rainfall 0.00 in
Snow Depth Not available.
7:04 AM 4:35 PM
Waxing Crescent, 16% visible
METAR KPHL 031854Z 31015KT 10SM BKN060 BKN250 11/M02 A3008 RMK AO2 SLP185 T01061022 $
Pressure 30.08 in
Visibility 10.0 miles
Clouds Mostly Cloudy 6000 ft
Mostly Cloudy 25000 ft
Dew Point 27 °F
Humidity 39%
Rainfall 0.00 in
Snow Depth Not available.
7:04 AM 4:35 PM
Waxing Crescent, 16% visible
METAR KPHL 031854Z 31015KT 10SM BKN060 BKN250 11/M02 A3008 RMK AO2 SLP185 T01061022 $

10-Day Weather Forecast

Almanac

Astronomy

Dec. 03, 2016 Rise Set
Actual Time
Civil Twilight
Nautical Twilight
Astronomical Twilight
Moon
Length of Visible Light
Length of Day
Tomorrow will be .
, % of the Moon is Illuminated

Today's Extremes

State Highs State Lows

Community

WunderPhotos

Upload Photos

1,955,469 photos uploaded!

WunderBlog® & News

Nearby

Air Quality

  Air Quality AQ Index Pollutant
Not available.

Snow Depth

Station Depth Elevation

Earthquake Activity

City Distance Mag. Time & Date
Minimum magnitude displayed is 2.5.

Coastal Water Temperatures

Place Temperature

Stations

Nearby Weather Stations

Station Location Temp. Windchill Dew Point Humidity Wind Precip. Elev Updated Type
                   

Watches & Warnings

There are currently no watches in effect.